Time;durP1;ratioP1;P1;durP2;ratioP2;P2;SDS_P1;SDS_P2;PMS_P1;PMS_P2;Temp;Humidity;BMP_temperature;BMP_pressure;BME280_temperature;BME280_humidity;BME280_pressure;Samples;Min_cycle;Max_cycle;Signal;HPM_P1;HPM_P2
2022/11/29 00:00:23;;;;;;;0.93;0.93;;;;;;;;;;5062764;28;20438;-82
2022/11/29 00:02:52;;;;;;;1.75;1.33;;;;;;;;;;5060783;28;20364;-81
2022/11/29 00:05:17;;;;;;;1.02;1.02;;;;;;;;;;5061004;28;20025;-81
2022/11/29 00:07:42;;;;;;;2.15;1.10;;;;;;;;;;5057936;28;20036;-82
2022/11/29 00:10:08;;;;;;;1.70;1.58;;;;;;;;;;5061237;28;20024;-81
2022/11/29 00:12:34;;;;;;;0.93;0.93;;;;;;;;;;5062915;28;20027;-81
2022/11/29 00:14:59;;;;;;;5.68;4.25;;;;;;;;;;5065840;28;20025;-82
2022/11/29 00:17:25;;;;;;;2.45;1.98;;;;;;;;;;5065754;28;20024;-81
2022/11/29 00:19:51;;;;;;;2.38;1.38;;;;;;;;;;5068172;28;20036;-80
2022/11/29 00:22:16;;;;;;;1.45;0.82;;;;;;;;;;5065077;28;20025;-82
2022/11/29 00:24:42;;;;;;;1.95;1.08;;;;;;;;;;5067242;28;20031;-82
2022/11/29 00:27:07;;;;;;;1.30;0.98;;;;;;;;;;5064755;28;20381;-81
2022/11/29 00:29:32;;;;;;;1.48;0.80;;;;;;;;;;5065457;28;20108;-82
2022/11/29 00:31:58;;;;;;;1.15;1.05;;;;;;;;;;5061806;28;20029;-82
2022/11/29 00:34:24;;;;;;;1.88;1.73;;;;;;;;;;5064557;28;20382;-82
2022/11/29 00:36:50;;;;;;;2.20;1.17;;;;;;;;;;5063023;28;20021;-82
2022/11/29 00:39:15;;;;;;;0.80;0.80;;;;;;;;;;5065598;28;20031;-82
2022/11/29 00:41:41;;;;;;;0.73;0.73;;;;;;;;;;5061978;28;20049;-81
2022/11/29 00:44:07;;;;;;;1.27;0.98;;;;;;;;;;5064623;28;20024;-81
2022/11/29 00:46:32;;;;;;;5.38;1.10;;;;;;;;;;5063111;28;20025;-81
2022/11/29 00:48:57;;;;;;;0.40;0.40;;;;;;;;;;5064932;28;20017;-82
2022/11/29 00:51:23;;;;;;;0.95;0.85;;;;;;;;;;5067952;28;20035;-82
2022/11/29 00:53:48;;;;;;;0.63;0.63;;;;;;;;;;5063126;28;20025;-82
2022/11/29 00:56:14;;;;;;;1.25;0.93;;;;;;;;;;5064298;28;20099;-82
2022/11/29 00:58:42;;;;;;;0.98;0.95;;;;;;;;;;5063375;28;20159;-81
2022/11/29 01:01:08;;;;;;;1.23;1.10;;;;;;;;;;5063493;28;20094;-82
2022/11/29 01:03:34;;;;;;;0.57;0.57;;;;;;;;;;5065068;28;20044;-82
2022/11/29 01:06:05;;;;;;;1.10;1.00;;;;;;;;;;5064138;28;20029;-82
2022/11/29 01:08:31;;;;;;;0.68;0.55;;;;;;;;;;5064635;28;20028;-81
2022/11/29 01:11:09;;;;;;;1.25;1.15;;;;;;;;;;5068112;28;20029;-82
2022/11/29 01:13:35;;;;;;;1.67;1.58;;;;;;;;;;5065637;28;20472;-82
2022/11/29 01:16:01;;;;;;;2.85;1.10;;;;;;;;;;5062114;28;20033;-82
2022/11/29 01:18:29;;;;;;;1.02;0.93;;;;;;;;;;5063390;28;20084;-82
2022/11/29 01:21:03;;;;;;;2.33;1.13;;;;;;;;;;5065832;28;20032;-81
2022/11/29 01:23:29;;;;;;;1.25;0.82;;;;;;;;;;5065957;28;20377;-82
2022/11/29 01:26:21;;;;;;;2.58;1.70;;;;;;;;;;5061068;28;20025;-82
2022/11/29 01:28:49;;;;;;;0.75;0.75;;;;;;;;;;5063605;28;20036;-82
2022/11/29 01:31:17;;;;;;;0.77;0.75;;;;;;;;;;5061424;28;20358;-81
2022/11/29 01:33:42;;;;;;;0.52;0.52;;;;;;;;;;5061978;28;20096;-81
2022/11/29 01:36:10;;;;;;;2.30;1.15;;;;;;;;;;5064975;28;20024;-82
2022/11/29 01:38:36;;;;;;;0.60;0.60;;;;;;;;;;5064204;28;20851;-81
2022/11/29 01:41:09;;;;;;;1.17;0.90;;;;;;;;;;5061227;28;20068;-82
2022/11/29 01:43:52;;;;;;;2.53;1.05;;;;;;;;;;5062645;28;20103;-81
2022/11/29 01:46:18;;;;;;;2.35;1.20;;;;;;;;;;5060687;28;20496;-82
2022/11/29 01:48:43;;;;;;;2.00;1.77;;;;;;;;;;5067755;28;20028;-82
2022/11/29 01:51:09;;;;;;;1.40;1.30;;;;;;;;;;5063607;28;20871;-82
2022/11/29 01:53:34;;;;;;;0.90;0.88;;;;;;;;;;5062789;28;20029;-82
2022/11/29 01:56:03;;;;;;;1.75;1.05;;;;;;;;;;5065713;28;20036;-83
2022/11/29 01:58:29;;;;;;;1.48;1.38;;;;;;;;;;5067350;28;20024;-82
2022/11/29 02:00:56;;;;;;;2.35;1.00;;;;;;;;;;5059531;28;20025;-82
2022/11/29 02:03:21;;;;;;;1.35;1.25;;;;;;;;;;5067194;28;20024;-82
2022/11/29 02:05:50;;;;;;;7.03;2.25;;;;;;;;;;5062640;28;20024;-81
2022/11/29 02:08:22;;;;;;;1.63;1.20;;;;;;;;;;5060175;28;20024;-82
2022/11/29 02:10:56;;;;;;;2.38;1.67;;;;;;;;;;5059507;28;20037;-82
2022/11/29 02:13:38;;;;;;;14.73;1.95;;;;;;;;;;5064209;28;20096;-81
2022/11/29 02:16:51;;;;;;;2.08;1.25;;;;;;;;;;5062493;28;20029;-81
2022/11/29 02:19:42;;;;;;;3.75;2.03;;;;;;;;;;5046536;28;20036;-81
2022/11/29 02:22:16;;;;;;;1.02;0.98;;;;;;;;;;5062630;28;20027;-82
2022/11/29 02:24:58;;;;;;;0.80;0.68;;;;;;;;;;5065973;28;20427;-81
2022/11/29 02:27:41;;;;;;;0.55;0.55;;;;;;;;;;5058780;28;20091;-80
2022/11/29 02:30:39;;;;;;;1.30;1.20;;;;;;;;;;5064260;28;20029;-80
2022/11/29 02:33:22;;;;;;;2.28;1.45;;;;;;;;;;5035621;28;20110;-81
2022/11/29 02:36:11;;;;;;;0.75;0.55;;;;;;;;;;5064180;28;20384;-81
2022/11/29 02:39:11;;;;;;;0.77;0.77;;;;;;;;;;5066572;28;20034;-82
2022/11/29 02:42:04;;;;;;;1.98;1.85;;;;;;;;;;5063237;28;20071;-81
2022/11/29 02:44:50;;;;;;;0.52;0.52;;;;;;;;;;5062326;28;20024;-81
2022/11/29 02:47:35;;;;;;;1.35;1.25;;;;;;;;;;5066615;28;20033;-81
2022/11/29 02:50:25;;;;;;;2.38;1.52;;;;;;;;;;5055001;28;20041;-81
2022/11/29 02:53:00;;;;;;;3.85;1.58;;;;;;;;;;5062179;28;20028;-81
2022/11/29 02:55:47;;;;;;;0.75;0.63;;;;;;;;;;5058709;28;20029;-81
2022/11/29 02:58:37;;;;;;;1.25;0.77;;;;;;;;;;5063703;28;20035;-82
2022/11/29 03:01:05;;;;;;;1.77;1.30;;;;;;;;;;5062575;28;20357;-81
2022/11/29 03:03:41;;;;;;;1.30;1.20;;;;;;;;;;5059015;28;20114;-81
2022/11/29 03:06:19;;;;;;;1.02;0.75;;;;;;;;;;5058072;28;20021;-81
2022/11/29 03:09:03;;;;;;;0.73;0.63;;;;;;;;;;5066120;28;20036;-81
2022/11/29 03:11:51;;;;;;;0.88;0.65;;;;;;;;;;5059859;28;20364;-81
2022/11/29 03:14:32;;;;;;;1.88;1.77;;;;;;;;;;5065224;28;20021;-80
2022/11/29 03:17:20;;;;;;;0.57;0.57;;;;;;;;;;5060949;28;20651;-80
2022/11/29 03:20:10;;;;;;;2.08;1.88;;;;;;;;;;5059492;28;20085;-81
2022/11/29 03:22:51;;;;;;;1.63;1.52;;;;;;;;;;5058155;28;20028;-81
2022/11/29 03:25:25;;;;;;;0.82;0.82;;;;;;;;;;5061137;28;20500;-81
2022/11/29 03:27:59;;;;;;;1.15;0.93;;;;;;;;;;5060060;28;20021;-81
2022/11/29 03:30:25;;;;;;;1.23;0.75;;;;;;;;;;5060643;28;20082;-80
2022/11/29 03:32:58;;;;;;;1.98;1.42;;;;;;;;;;5060583;28;20032;-80
2022/11/29 03:35:41;;;;;;;2.08;1.38;;;;;;;;;;5058147;28;20025;-81
2022/11/29 03:38:22;;;;;;;0.95;0.93;;;;;;;;;;5056993;28;20362;-82
2022/11/29 03:40:56;;;;;;;0.68;0.60;;;;;;;;;;5064089;28;20533;-82
2022/11/29 03:43:44;;;;;;;1.60;0.88;;;;;;;;;;5062961;28;20411;-81
2022/11/29 03:46:44;;;;;;;1.67;1.15;;;;;;;;;;5058926;28;20383;-81
2022/11/29 03:49:36;;;;;;;0.73;0.73;;;;;;;;;;5055579;28;20115;-81
2022/11/29 03:52:25;;;;;;;2.78;1.33;;;;;;;;;;5058513;28;20119;-81
2022/11/29 03:55:09;;;;;;;4.03;1.13;;;;;;;;;;5061588;28;20013;-84
2022/11/29 03:58:04;;;;;;;1.27;0.70;;;;;;;;;;5061031;28;20024;-82
2022/11/29 04:00:43;;;;;;;3.58;1.60;;;;;;;;;;5060809;28;20017;-81
2022/11/29 04:03:27;;;;;;;1.58;1.48;;;;;;;;;;5055370;28;20380;-81
2022/11/29 04:06:30;;;;;;;0.50;0.50;;;;;;;;;;5059877;28;20067;-82
2022/11/29 04:09:10;;;;;;;0.55;0.55;;;;;;;;;;5026228;28;20044;-82
2022/11/29 04:11:36;;;;;;;1.67;0.70;;;;;;;;;;5053197;28;20163;-83
2022/11/29 04:14:26;;;;;;;2.15;1.08;;;;;;;;;;5057028;28;20117;-82
2022/11/29 04:17:10;;;;;;;2.33;0.60;;;;;;;;;;5058201;28;20124;-82
2022/11/29 04:19:44;;;;;;;0.52;0.52;;;;;;;;;;5059186;28;20384;-83
2022/11/29 04:22:15;;;;;;;1.15;0.98;;;;;;;;;;5060399;28;20024;-82
2022/11/29 04:24:50;;;;;;;0.75;0.50;;;;;;;;;;5057600;28;20032;-82
2022/11/29 04:27:50;;;;;;;2.00;0.88;;;;;;;;;;5056036;28;20017;-82
2022/11/29 04:30:22;;;;;;;;;;;;;;;;;;5055711;28;20025;-82
2022/11/29 04:33:12;;;;;;;0.20;0.20;;;;;;;;;;5059690;28;20053;-82
2022/11/29 04:35:38;;;;;;;0.73;0.47;;;;;;;;;;5056377;28;20031;-82
2022/11/29 04:38:30;;;;;;;0.50;0.50;;;;;;;;;;5059534;28;20029;-82
2022/11/29 04:41:14;;;;;;;0.40;0.40;;;;;;;;;;5058057;28;20060;-82
2022/11/29 04:44:15;;;;;;;0.30;0.30;;;;;;;;;;5057000;28;20032;-82
2022/11/29 04:46:55;;;;;;;0.35;0.35;;;;;;;;;;5056389;28;20106;-81
2022/11/29 04:49:29;;;;;;;1.45;1.13;;;;;;;;;;5052699;28;20423;-81
2022/11/29 04:52:10;;;;;;;0.40;0.40;;;;;;;;;;5054116;28;20036;-82
2022/11/29 04:54:44;;;;;;;0.55;0.55;;;;;;;;;;5056189;28;20044;-81
2022/11/29 04:57:34;;;;;;;1.80;1.38;;;;;;;;;;5063299;28;20028;-82
2022/11/29 05:00:19;;;;;;;1.45;1.17;;;;;;;;;;5059147;28;20024;-81
2022/11/29 05:03:19;;;;;;;0.50;0.50;;;;;;;;;;5062010;28;20032;-82
2022/11/29 05:06:01;;;;;;;0.57;0.57;;;;;;;;;;5059152;28;20031;-82
2022/11/29 05:09:23;;;;;;;0.47;0.47;;;;;;;;;;5060663;28;20028;-83
2022/11/29 05:12:07;;;;;;;0.50;0.50;;;;;;;;;;5041248;28;20028;-81
2022/11/29 05:14:48;;;;;;;0.40;0.40;;;;;;;;;;5061997;28;20039;-82
2022/11/29 05:17:46;;;;;;;0.30;0.30;;;;;;;;;;5060335;28;21471;-82
2022/11/29 05:20:49;;;;;;;0.73;0.65;;;;;;;;;;5062406;28;20025;-82
2022/11/29 05:23:25;;;;;;;0.85;0.70;;;;;;;;;;5062150;28;20024;-82
2022/11/29 05:26:00;;;;;;;1.52;1.42;;;;;;;;;;5064470;28;20071;-81
2022/11/29 05:28:53;;;;;;;0.50;0.50;;;;;;;;;;5059211;28;20522;-81
2022/11/29 05:31:34;;;;;;;2.70;1.45;;;;;;;;;;5058251;28;20024;-81
2022/11/29 05:34:09;;;;;;;0.77;0.77;;;;;;;;;;5062424;28;20032;-81
2022/11/29 05:36:48;;;;;;;2.30;1.33;;;;;;;;;;5056789;28;20040;-80
2022/11/29 05:39:16;;;;;;;0.90;0.68;;;;;;;;;;5056558;28;20025;-81
2022/11/29 05:41:51;;;;;;;1.02;0.95;;;;;;;;;;5063243;28;20052;-80
2022/11/29 05:44:36;;;;;;;1.27;0.77;;;;;;;;;;5053089;28;20029;-81
2022/11/29 05:47:10;;;;;;;7.82;1.23;;;;;;;;;;5060294;28;20028;-82
2022/11/29 05:49:38;;;;;;;0.70;0.70;;;;;;;;;;5064293;28;20471;-80
2022/11/29 05:52:19;;;;;;;2.55;1.17;;;;;;;;;;5058015;28;20024;-81
2022/11/29 05:55:17;;;;;;;1.10;1.00;;;;;;;;;;5056387;28;20063;-81
2022/11/29 05:57:54;;;;;;;0.40;0.40;;;;;;;;;;5059568;28;20163;-81
2022/11/29 06:00:21;;;;;;;1.02;0.93;;;;;;;;;;5060799;28;20032;-81
2022/11/29 06:03:12;;;;;;;1.70;1.27;;;;;;;;;;5058406;28;20079;-81
2022/11/29 06:05:40;;;;;;;1.63;1.00;;;;;;;;;;5063318;28;20055;-80
2022/11/29 06:08:29;;;;;;;1.70;1.13;;;;;;;;;;5057845;28;20067;-80
2022/11/29 06:11:20;;;;;;;0.75;0.75;;;;;;;;;;5058716;28;20444;-80
2022/11/29 06:14:04;;;;;;;1.02;0.90;;;;;;;;;;5058472;28;20040;-80
2022/11/29 06:16:55;;;;;;;1.30;1.20;;;;;;;;;;5059915;28;20043;-81
2022/11/29 06:19:39;;;;;;;1.50;1.00;;;;;;;;;;5063032;28;20051;-81
2022/11/29 06:22:26;;;;;;;1.33;1.02;;;;;;;;;;5059836;28;20455;-80
2022/11/29 06:25:21;;;;;;;1.52;1.13;;;;;;;;;;5062306;28;20081;-80
2022/11/29 06:28:13;;;;;;;0.85;0.85;;;;;;;;;;5059795;28;20423;-80
2022/11/29 06:30:53;;;;;;;1.38;0.75;;;;;;;;;;5062594;28;20029;-80
2022/11/29 06:33:27;;;;;;;1.00;0.77;;;;;;;;;;5064326;28;20024;-80
2022/11/29 06:36:14;;;;;;;1.13;1.05;;;;;;;;;;5055711;28;20036;-82
2022/11/29 06:38:40;;;;;;;2.50;1.85;;;;;;;;;;5057386;28;20040;-80
2022/11/29 06:41:08;;;;;;;2.85;1.33;;;;;;;;;;5056550;28;20043;-80
2022/11/29 06:43:33;;;;;;;1.80;1.50;;;;;;;;;;5059097;28;20034;-82
2022/11/29 06:46:33;;;;;;;2.08;1.30;;;;;;;;;;5054540;28;20025;-80
2022/11/29 06:49:11;;;;;;;2.88;1.77;;;;;;;;;;5055349;28;20037;-81
2022/11/29 06:51:41;;;;;;;2.25;1.45;;;;;;;;;;5055813;28;20021;-81
2022/11/29 06:54:23;;;;;;;2.53;1.15;;;;;;;;;;5054101;28;20032;-81
2022/11/29 06:57:03;;;;;;;2.10;1.73;;;;;;;;;;5058583;28;20527;-82
2022/11/29 06:59:47;;;;;;;1.42;1.15;;;;;;;;;;5058412;28;20028;-81
2022/11/29 07:02:24;;;;;;;0.70;0.60;;;;;;;;;;5060592;28;20028;-81
2022/11/29 07:05:01;;;;;;;0.50;0.50;;;;;;;;;;5061876;28;20021;-81
2022/11/29 07:07:27;;;;;;;1.45;1.08;;;;;;;;;;5058696;28;20085;-81
2022/11/29 07:09:58;;;;;;;1.00;0.95;;;;;;;;;;5061268;28;20033;-81
2022/11/29 07:12:24;;;;;;;1.33;1.00;;;;;;;;;;5056116;28;20025;-80
2022/11/29 07:14:50;;;;;;;2.47;1.58;;;;;;;;;;5063486;28;20029;-81
2022/11/29 07:17:31;;;;;;;1.05;1.00;;;;;;;;;;5057536;28;20055;-81
2022/11/29 07:20:22;;;;;;;0.95;0.77;;;;;;;;;;5056620;28;20536;-81
2022/11/29 07:23:15;;;;;;;1.25;1.15;;;;;;;;;;5034786;28;20051;-81
2022/11/29 07:25:46;;;;;;;0.57;0.57;;;;;;;;;;5051923;28;20096;-81
2022/11/29 07:28:15;;;;;;;1.52;1.17;;;;;;;;;;5062683;28;20072;-79
2022/11/29 07:31:38;;;;;;;1.65;1.40;;;;;;;;;;5063425;28;20081;-80
2022/11/29 07:34:26;;;;;;;2.53;1.30;;;;;;;;;;5039671;28;20040;-81
2022/11/29 07:37:13;;;;;;;2.55;0.90;;;;;;;;;;5037354;28;20115;-81
2022/11/29 07:39:39;;;;;;;2.05;1.60;;;;;;;;;;5054581;28;20063;-81
2022/11/29 07:42:34;;;;;;;0.68;0.68;;;;;;;;;;5065126;28;20513;-82
2022/11/29 07:45:25;;;;;;;1.80;1.25;;;;;;;;;;5057338;28;20078;-82
2022/11/29 07:47:50;;;;;;;0.70;0.70;;;;;;;;;;5057575;28;20017;-81
2022/11/29 07:50:16;;;;;;;0.93;0.82;;;;;;;;;;5058798;28;20017;-80
2022/11/29 07:52:42;;;;;;;9.25;5.95;;;;;;;;;;5060146;28;20687;-80
2022/11/29 07:55:12;;;;;;;7.43;3.88;;;;;;;;;;5056413;28;20021;-82
2022/11/29 07:57:38;;;;;;;5.60;2.90;;;;;;;;;;5050794;28;20071;-81
2022/11/29 08:00:04;;;;;;;1.98;1.33;;;;;;;;;;5053431;28;20033;-82
2022/11/29 08:02:30;;;;;;;2.45;1.50;;;;;;;;;;5058378;28;20029;-82
2022/11/29 08:04:56;;;;;;;1.45;1.08;;;;;;;;;;5059470;28;20036;-79
2022/11/29 08:07:21;;;;;;;4.65;2.22;;;;;;;;;;5060434;28;20033;-80
2022/11/29 08:09:47;;;;;;;1.17;1.00;;;;;;;;;;5054560;28;20385;-79
2022/11/29 08:12:13;;;;;;;1.50;1.20;;;;;;;;;;5058166;28;20029;-80
2022/11/29 08:14:38;;;;;;;1.13;1.02;;;;;;;;;;5053451;28;20032;-82
2022/11/29 08:17:03;;;;;;;3.25;1.65;;;;;;;;;;5056366;28;20025;-81
2022/11/29 08:19:29;;;;;;;0.98;0.98;;;;;;;;;;5052390;28;20146;-82
2022/11/29 08:21:54;;;;;;;2.10;1.65;;;;;;;;;;5054971;28;20036;-82
2022/11/29 08:24:20;;;;;;;1.30;1.17;;;;;;;;;;5055147;28;20035;-82
2022/11/29 08:26:45;;;;;;;0.60;0.60;;;;;;;;;;5055287;28;20472;-82
2022/11/29 08:29:10;;;;;;;3.60;1.33;;;;;;;;;;5052981;28;20052;-80
2022/11/29 08:31:36;;;;;;;0.68;0.68;;;;;;;;;;5060756;28;20091;-82
2022/11/29 08:34:04;;;;;;;2.00;1.50;;;;;;;;;;5064169;28;20108;-81
2022/11/29 08:36:30;;;;;;;1.65;1.30;;;;;;;;;;5064011;28;20387;-82
2022/11/29 08:38:55;;;;;;;0.70;0.70;;;;;;;;;;5058292;28;20103;-81
2022/11/29 08:41:21;;;;;;;1.75;0.80;;;;;;;;;;5058033;28;20140;-81
2022/11/29 08:43:46;;;;;;;1.42;1.33;;;;;;;;;;5066070;28;20029;-80
2022/11/29 08:46:12;;;;;;;0.80;0.80;;;;;;;;;;5060452;28;20025;-80
2022/11/29 08:48:37;;;;;;;1.13;0.90;;;;;;;;;;5060889;28;20040;-80
2022/11/29 08:51:03;;;;;;;0.75;0.75;;;;;;;;;;5053648;28;20037;-80
2022/11/29 08:53:41;;;;;;;1.77;1.23;;;;;;;;;;5057456;28;20037;-81
2022/11/29 08:56:17;;;;;;;2.00;1.15;;;;;;;;;;5053090;28;20079;-80
2022/11/29 08:58:43;;;;;;;1.08;0.98;;;;;;;;;;5057116;28;20064;-81
2022/11/29 09:01:16;;;;;;;0.60;0.60;;;;;;;;;;5060541;28;20064;-81
2022/11/29 09:03:58;;;;;;;0.93;0.82;;;;;;;;;;5055168;28;20349;-80
2022/11/29 09:06:25;;;;;;;1.00;0.98;;;;;;;;;;5058619;28;20353;-79
2022/11/29 09:08:52;;;;;;;1.58;1.23;;;;;;;;;;5057868;28;20057;-82
2022/11/29 09:11:20;;;;;;;0.73;0.73;;;;;;;;;;5050841;28;20052;-81
2022/11/29 09:13:48;;;;;;;1.25;1.05;;;;;;;;;;5055546;28;20033;-82
2022/11/29 09:16:19;;;;;;;3.08;1.48;;;;;;;;;;5054162;28;20021;-81
2022/11/29 09:18:47;;;;;;;1.92;0.98;;;;;;;;;;5051043;28;20021;-81
2022/11/29 09:21:13;;;;;;;0.90;0.80;;;;;;;;;;5055597;28;20030;-80
2022/11/29 09:23:40;;;;;;;3.40;1.45;;;;;;;;;;5057493;28;20791;-81
2022/11/29 09:26:07;;;;;;;1.90;1.10;;;;;;;;;;5059505;28;20029;-81
2022/11/29 09:28:33;;;;;;;1.10;0.68;;;;;;;;;;5058965;28;20032;-81
2022/11/29 09:31:06;;;;;;;1.30;1.00;;;;;;;;;;5061445;28;20062;-81
2022/11/29 09:33:33;;;;;;;1.05;0.98;;;;;;;;;;5058950;28;20024;-80
2022/11/29 09:35:59;;;;;;;2.15;1.33;;;;;;;;;;5055498;28;20037;-82
2022/11/29 09:38:24;;;;;;;1.17;1.08;;;;;;;;;;5053840;28;20030;-80
2022/11/29 09:41:00;;;;;;;2.15;1.60;;;;;;;;;;5056548;28;20032;-82
2022/11/29 09:44:10;;;;;;;3.30;1.40;;;;;;;;;;5054538;28;20036;-82
2022/11/29 09:47:03;;;;;;;1.70;1.27;;;;;;;;;;5055168;28;20056;-80
2022/11/29 09:49:46;;;;;;;2.72;1.30;;;;;;;;;;5062922;28;20025;-80
2022/11/29 09:52:51;;;;;;;1.58;1.20;;;;;;;;;;5057378;28;20039;-78
2022/11/29 09:55:32;;;;;;;1.42;1.27;;;;;;;;;;5053170;28;20032;-80
2022/11/29 09:57:59;;;;;;;2.70;1.33;;;;;;;;;;5059384;28;20043;-78
2022/11/29 10:00:27;;;;;;;2.70;1.60;;;;;;;;;;5063025;28;20078;-79
2022/11/29 10:02:59;;;;;;;2.20;1.63;;;;;;;;;;5056824;28;20436;-80
2022/11/29 10:05:30;;;;;;;0.85;0.85;;;;;;;;;;5055611;28;20099;-79
2022/11/29 10:08:04;;;;;;;1.27;1.17;;;;;;;;;;5058249;28;20021;-80
2022/11/29 10:10:42;;;;;;;1.85;1.67;;;;;;;;;;5060783;28;20033;-80
2022/11/29 10:13:24;;;;;;;0.88;0.88;;;;;;;;;;5064764;28;20021;-80
2022/11/29 10:15:53;;;;;;;0.77;0.77;;;;;;;;;;5052669;28;20108;-80
2022/11/29 10:18:37;;;;;;;2.53;1.60;;;;;;;;;;5050370;28;20024;-81
2022/11/29 10:21:21;;;;;;;1.58;1.20;;;;;;;;;;5060321;28;20101;-79
2022/11/29 10:24:16;;;;;;;1.80;1.35;;;;;;;;;;5059341;28;20024;-80
2022/11/29 10:26:42;;;;;;;1.15;0.90;;;;;;;;;;5052528;28;20495;-81
2022/11/29 10:29:13;;;;;;;1.40;1.15;;;;;;;;;;5060421;28;20059;-80
2022/11/29 10:31:42;;;;;;;1.05;0.95;;;;;;;;;;5059963;28;20412;-79
2022/11/29 10:34:30;;;;;;;7.88;1.35;;;;;;;;;;5052027;28;20082;-80
2022/11/29 10:36:58;;;;;;;1.52;1.10;;;;;;;;;;5062181;28;20036;-80
2022/11/29 10:39:38;;;;;;;2.45;1.92;;;;;;;;;;5058397;28;20056;-80
2022/11/29 10:42:47;;;;;;;1.27;0.85;;;;;;;;;;5063868;28;20049;-81
2022/11/29 10:44:52;;;;;;;1.17;0.80;;;;;;;;;;5061323;28;20485;-80
2022/11/29 10:47:17;;;;;;;1.98;0.82;;;;;;;;;;5067871;28;20111;-81
2022/11/29 10:49:43;;;;;;;1.38;1.23;;;;;;;;;;5049882;28;20053;-79
2022/11/29 10:52:18;;;;;;;2.17;1.48;;;;;;;;;;5057160;28;20048;-78
2022/11/29 10:54:46;;;;;;;2.08;1.33;;;;;;;;;;5053470;28;20029;-77
2022/11/29 10:57:14;;;;;;;2.40;1.42;;;;;;;;;;5060555;28;20028;-78
2022/11/29 10:59:40;;;;;;;1.17;0.95;;;;;;;;;;5059948;28;20499;-77
2022/11/29 11:02:19;;;;;;;3.33;1.98;;;;;;;;;;5059568;28;20036;-79
2022/11/29 11:04:46;;;;;;;2.75;1.75;;;;;;;;;;5064865;28;20094;-79
2022/11/29 11:07:41;;;;;;;1.70;1.48;;;;;;;;;;5053673;28;20021;-77
2022/11/29 11:10:24;;;;;;;3.85;2.30;;;;;;;;;;5046233;28;20066;-77
2022/11/29 11:13:05;;;;;;;2.17;1.33;;;;;;;;;;5059541;28;20051;-79
2022/11/29 11:15:31;;;;;;;1.15;1.05;;;;;;;;;;5056052;28;20031;-78
2022/11/29 11:17:59;;;;;;;1.27;0.98;;;;;;;;;;5052051;28;20060;-78
2022/11/29 11:20:28;;;;;;;1.73;1.20;;;;;;;;;;5062367;28;20112;-78
2022/11/29 11:23:02;;;;;;;2.80;1.27;;;;;;;;;;5061475;28;20040;-78
2022/11/29 11:25:37;;;;;;;2.10;1.65;;;;;;;;;;5056630;28;20350;-78
2022/11/29 11:28:27;;;;;;;2.83;1.45;;;;;;;;;;5056740;28;20147;-78
2022/11/29 11:30:54;;;;;;;2.30;1.77;;;;;;;;;;5060617;28;20032;-79
2022/11/29 11:33:32;;;;;;;3.00;1.63;;;;;;;;;;5048803;28;20191;-78
2022/11/29 11:36:04;;;;;;;2.67;1.27;;;;;;;;;;5052767;28;20366;-79
2022/11/29 11:38:30;;;;;;;3.13;1.70;;;;;;;;;;5051289;28;20028;-78
2022/11/29 11:41:02;;;;;;;2.50;1.83;;;;;;;;;;5061182;28;20077;-79
2022/11/29 11:43:27;;;;;;;3.13;1.85;;;;;;;;;;5060204;28;20037;-79
2022/11/29 11:45:53;;;;;;;2.22;1.80;;;;;;;;;;5061972;28;20033;-78
2022/11/29 11:48:19;;;;;;;6.60;1.30;;;;;;;;;;5060787;28;20103;-79
2022/11/29 11:50:48;;;;;;;2.55;2.00;;;;;;;;;;5057957;28;20110;-78
2022/11/29 11:53:19;;;;;;;5.45;3.25;;;;;;;;;;5058062;28;20472;-79
2022/11/29 11:56:04;;;;;;;2.88;2.17;;;;;;;;;;5055411;28;20131;-78
2022/11/29 11:58:35;;;;;;;3.67;2.22;;;;;;;;;;5052519;28;20389;-79
2022/11/29 12:01:14;;;;;;;4.40;2.25;;;;;;;;;;5054742;28;20503;-78
2022/11/29 12:03:49;;;;;;;2.58;1.95;;;;;;;;;;5060799;28;20020;-80
2022/11/29 12:06:34;;;;;;;2.88;1.98;;;;;;;;;;5056014;28;20021;-79
2022/11/29 12:09:02;;;;;;;3.80;2.42;;;;;;;;;;5055909;28;20070;-78
2022/11/29 12:11:35;;;;;;;3.45;2.08;;;;;;;;;;5057445;28;20055;-78
2022/11/29 12:14:04;;;;;;;3.00;2.70;;;;;;;;;;5056095;28;20082;-77
2022/11/29 12:16:35;;;;;;;2.22;1.90;;;;;;;;;;5064148;28;20085;-78
2022/11/29 12:19:17;;;;;;;2.60;2.40;;;;;;;;;;5062942;28;20062;-78
2022/11/29 12:21:51;;;;;;;3.42;2.80;;;;;;;;;;5059394;28;20033;-78
2022/11/29 12:24:27;;;;;;;2.55;1.90;;;;;;;;;;5061424;28;20025;-80
2022/11/29 12:26:55;;;;;;;2.95;1.85;;;;;;;;;;5056830;28;20036;-79
2022/11/29 12:29:21;;;;;;;4.50;3.55;;;;;;;;;;5057341;28;20146;-80
2022/11/29 12:32:05;;;;;;;2.63;2.05;;;;;;;;;;5063029;28;20376;-79
2022/11/29 12:35:07;;;;;;;2.28;1.95;;;;;;;;;;5054932;28;20027;-79
2022/11/29 12:37:43;;;;;;;5.05;3.63;;;;;;;;;;5053287;28;20029;-78
2022/11/29 12:40:31;;;;;;;5.07;3.45;;;;;;;;;;5057157;28;20481;-80
2022/11/29 12:43:12;;;;;;;2.75;2.13;;;;;;;;;;5066260;28;20396;-79
2022/11/29 12:45:52;;;;;;;3.47;2.08;;;;;;;;;;5052451;28;20469;-79
2022/11/29 12:48:22;;;;;;;;;;;;;;;;;;5064237;28;20021;-79
2022/11/29 12:50:53;;;;;;;1.58;1.20;;;;;;;;;;5063060;28;20381;-78
2022/11/29 12:53:24;;;;;;;2.28;1.83;;;;;;;;;;5059744;28;20037;-79
2022/11/29 12:55:59;;;;;;;1.50;1.40;;;;;;;;;;5059279;28;20036;-79
2022/11/29 12:58:27;;;;;;;2.38;1.63;;;;;;;;;;5055534;28;20485;-79
2022/11/29 13:01:00;;;;;;;2.33;1.80;;;;;;;;;;5061016;28;20484;-79
2022/11/29 13:04:04;;;;;;;2.80;1.52;;;;;;;;;;5054265;28;20057;-80
2022/11/29 13:06:44;;;;;;;1.65;1.50;;;;;;;;;;5065718;28;20601;-79
2022/11/29 13:09:47;;;;;;;2.42;1.50;;;;;;;;;;5048615;28;20028;-79
2022/11/29 13:12:15;;;;;;;2.70;1.65;;;;;;;;;;5050245;28;20033;-78
2022/11/29 13:15:02;;;;;;;1.98;1.27;;;;;;;;;;5051259;28;20028;-80
2022/11/29 13:17:59;;;;;;;2.45;1.42;;;;;;;;;;5058048;28;20136;-78
2022/11/29 13:20:27;;;;;;;2.10;1.15;;;;;;;;;;5056133;28;20050;-78
2022/11/29 13:23:19;;;;;;;1.42;1.30;;;;;;;;;;5060405;28;20029;-78
2022/11/29 13:25:49;;;;;;;4.05;2.33;;;;;;;;;;5057920;28;20024;-77
2022/11/29 13:28:21;;;;;;;1.48;1.25;;;;;;;;;;5053639;28;20445;-78
2022/11/29 13:30:46;;;;;;;1.75;1.65;;;;;;;;;;5060370;28;20108;-79
2022/11/29 13:33:42;;;;;;;3.63;2.60;;;;;;;;;;5059467;28;20124;-77
2022/11/29 13:36:44;;;;;;;2.97;1.75;;;;;;;;;;5060228;28;20024;-78
2022/11/29 13:39:12;;;;;;;5.15;2.25;;;;;;;;;;5046909;28;20037;-80
2022/11/29 13:42:03;;;;;;;1.38;1.27;;;;;;;;;;5054922;28;20056;-77
2022/11/29 13:44:44;;;;;;;0.70;0.70;;;;;;;;;;5052570;28;20067;-77
2022/11/29 13:47:12;;;;;;;2.88;1.67;;;;;;;;;;5058508;28;20024;-77
2022/11/29 13:50:03;;;;;;;3.53;1.70;;;;;;;;;;5059874;28;20033;-79
2022/11/29 13:52:41;;;;;;;3.70;2.10;;;;;;;;;;5058772;28;20472;-77
2022/11/29 13:55:10;;;;;;;3.63;1.90;;;;;;;;;;5055277;28;20374;-78
2022/11/29 13:58:09;;;;;;;2.08;1.60;;;;;;;;;;5056630;28;20027;-77
2022/11/29 14:00:49;;;;;;;1.30;1.17;;;;;;;;;;5060133;28;20044;-78
2022/11/29 14:03:19;;;;;;;2.78;1.88;;;;;;;;;;5063691;28;20048;-77
2022/11/29 14:05:51;;;;;;;2.28;1.63;;;;;;;;;;5054504;28;20387;-79
2022/11/29 14:08:25;;;;;;;1.90;1.67;;;;;;;;;;5052048;28;20044;-78
2022/11/29 14:10:54;;;;;;;5.30;0.93;;;;;;;;;;5055485;28;20025;-78
2022/11/29 14:13:22;;;;;;;1.30;1.00;;;;;;;;;;5058130;28;20021;-80
2022/11/29 14:15:57;;;;;;;1.05;0.93;;;;;;;;;;5064547;28;20508;-79
2022/11/29 14:18:39;;;;;;;1.27;1.02;;;;;;;;;;5066660;28;20039;-78
2022/11/29 14:21:05;;;;;;;1.33;0.93;;;;;;;;;;5059100;28;20056;-79
2022/11/29 14:23:39;;;;;;;2.50;1.35;;;;;;;;;;5050607;28;20091;-79
2022/11/29 14:26:04;;;;;;;2.17;1.17;;;;;;;;;;5057675;28;20448;-78
2022/11/29 14:28:34;;;;;;;1.77;1.40;;;;;;;;;;5054230;28;20108;-81
2022/11/29 14:31:01;;;;;;;3.13;1.05;;;;;;;;;;5053990;28;20020;-81
2022/11/29 14:33:54;;;;;;;2.20;1.55;;;;;;;;;;5059828;28;20108;-79
2022/11/29 14:36:42;;;;;;;2.90;1.65;;;;;;;;;;5058288;28;20392;-79
2022/11/29 14:39:26;;;;;;;1.27;0.88;;;;;;;;;;5055271;28;20032;-78
2022/11/29 14:42:02;;;;;;;1.17;0.70;;;;;;;;;;5056755;28;20045;-79
2022/11/29 14:44:32;;;;;;;1.60;1.33;;;;;;;;;;5048854;28;20032;-79
2022/11/29 14:47:19;;;;;;;1.80;0.80;;;;;;;;;;5042320;28;20497;-78
2022/11/29 14:49:45;;;;;;;1.77;0.98;;;;;;;;;;5052082;28;20036;-79
2022/11/29 14:52:17;;;;;;;1.52;1.40;;;;;;;;;;5059611;28;20546;-79
2022/11/29 14:55:00;;;;;;;1.88;1.75;;;;;;;;;;5055124;28;20028;-78
2022/11/29 14:57:54;;;;;;;3.50;1.90;;;;;;;;;;5048692;28;20033;-81
2022/11/29 15:00:33;;;;;;;2.65;1.58;;;;;;;;;;5052825;28;20040;-81
2022/11/29 15:03:20;;;;;;;1.58;1.35;;;;;;;;;;5048153;28;20032;-82
2022/11/29 15:06:10;;;;;;;2.38;1.50;;;;;;;;;;5058021;28;20029;-82
2022/11/29 15:09:04;;;;;;;1.48;1.38;;;;;;;;;;5049896;28;20044;-81
2022/11/29 15:11:36;;;;;;;4.70;2.08;;;;;;;;;;5058791;28;20792;-82
2022/11/29 15:14:05;;;;;;;1.13;1.10;;;;;;;;;;5055137;28;20037;-81
2022/11/29 15:16:58;;;;;;;2.38;1.77;;;;;;;;;;5056476;28;20101;-79
2022/11/29 15:19:44;;;;;;;2.35;1.75;;;;;;;;;;5062148;28;20036;-81
2022/11/29 15:22:13;;;;;;;3.30;2.35;;;;;;;;;;5046621;28;20126;-80
2022/11/29 15:25:01;;;;;;;7.70;3.40;;;;;;;;;;5061625;28;20024;-81
2022/11/29 15:27:27;;;;;;;6.93;2.55;;;;;;;;;;5060005;28;20032;-82
2022/11/29 15:29:52;;;;;;;2.30;1.88;;;;;;;;;;5059763;28;20053;-81
2022/11/29 15:32:29;;;;;;;3.05;2.05;;;;;;;;;;5055811;28;20032;-80
2022/11/29 15:34:56;;;;;;;2.50;1.85;;;;;;;;;;5060669;28;20107;-83
2022/11/29 15:37:30;;;;;;;3.58;1.02;;;;;;;;;;5060444;28;20094;-82